sensor_id;sensor_type;location;lat;lon;timestamp;P1;durP1;ratioP1;P2;durP2;ratioP2
46084;SDS011;31823;47.032;8.310;2023-03-14T00:01:43;1.65;;;0.50;;
46084;SDS011;31823;47.032;8.310;2023-03-14T00:04:10;1.70;;;0.63;;
46084;SDS011;31823;47.032;8.310;2023-03-14T00:06:35;0.50;;;0.50;;
46084;SDS011;31823;47.032;8.310;2023-03-14T00:09:01;0.95;;;0.60;;
46084;SDS011;31823;47.032;8.310;2023-03-14T00:11:26;2.47;;;0.68;;
46084;SDS011;31823;47.032;8.310;2023-03-14T00:13:52;2.72;;;0.73;;
46084;SDS011;31823;47.032;8.310;2023-03-14T00:16:18;0.80;;;0.50;;
46084;SDS011;31823;47.032;8.310;2023-03-14T00:18:44;2.80;;;0.77;;
46084;SDS011;31823;47.032;8.310;2023-03-14T00:21:10;0.75;;;0.75;;
46084;SDS011;31823;47.032;8.310;2023-03-14T00:23:37;0.57;;;0.50;;
46084;SDS011;31823;47.032;8.310;2023-03-14T00:26:05;0.70;;;0.70;;
46084;SDS011;31823;47.032;8.310;2023-03-14T00:28:32;1.55;;;0.50;;
46084;SDS011;31823;47.032;8.310;2023-03-14T00:30:58;0.60;;;0.60;;
46084;SDS011;31823;47.032;8.310;2023-03-14T00:33:23;1.25;;;0.68;;
46084;SDS011;31823;47.032;8.310;2023-03-14T00:35:53;2.80;;;0.60;;
46084;SDS011;31823;47.032;8.310;2023-03-14T00:38:24;3.63;;;0.70;;
46084;SDS011;31823;47.032;8.310;2023-03-14T00:40:50;0.60;;;0.60;;
46084;SDS011;31823;47.032;8.310;2023-03-14T00:43:16;1.42;;;0.85;;
46084;SDS011;31823;47.032;8.310;2023-03-14T00:45:42;0.60;;;0.60;;
46084;SDS011;31823;47.032;8.310;2023-03-14T00:48:08;3.85;;;0.80;;
46084;SDS011;31823;47.032;8.310;2023-03-14T00:50:34;1.80;;;1.02;;
46084;SDS011;31823;47.032;8.310;2023-03-14T00:53:00;2.10;;;0.75;;
46084;SDS011;31823;47.032;8.310;2023-03-14T00:55:25;0.70;;;0.70;;
46084;SDS011;31823;47.032;8.310;2023-03-14T00:57:51;0.60;;;0.52;;
46084;SDS011;31823;47.032;8.310;2023-03-14T01:00:16;2.25;;;0.60;;
46084;SDS011;31823;47.032;8.310;2023-03-14T01:02:42;0.50;;;0.50;;
46084;SDS011;31823;47.032;8.310;2023-03-14T01:05:08;2.65;;;0.60;;
46084;SDS011;31823;47.032;8.310;2023-03-14T01:07:35;0.68;;;0.68;;
46084;SDS011;31823;47.032;8.310;2023-03-14T01:10:01;1.15;;;0.70;;
46084;SDS011;31823;47.032;8.310;2023-03-14T01:12:28;0.75;;;0.50;;
46084;SDS011;31823;47.032;8.310;2023-03-14T01:14:53;0.63;;;0.63;;
46084;SDS011;31823;47.032;8.310;2023-03-14T01:17:19;1.10;;;0.50;;
46084;SDS011;31823;47.032;8.310;2023-03-14T01:19:45;0.50;;;0.50;;
46084;SDS011;31823;47.032;8.310;2023-03-14T01:22:10;0.47;;;0.47;;
46084;SDS011;31823;47.032;8.310;2023-03-14T01:24:36;1.55;;;0.45;;
46084;SDS011;31823;47.032;8.310;2023-03-14T01:27:02;0.50;;;0.50;;
46084;SDS011;31823;47.032;8.310;2023-03-14T01:29:28;0.40;;;0.40;;
46084;SDS011;31823;47.032;8.310;2023-03-14T01:31:54;1.00;;;0.68;;
46084;SDS011;31823;47.032;8.310;2023-03-14T01:34:19;0.52;;;0.52;;
46084;SDS011;31823;47.032;8.310;2023-03-14T01:36:45;1.00;;;0.50;;
46084;SDS011;31823;47.032;8.310;2023-03-14T01:39:11;1.95;;;0.50;;
46084;SDS011;31823;47.032;8.310;2023-03-14T01:41:38;0.73;;;0.60;;
46084;SDS011;31823;47.032;8.310;2023-03-14T01:44:04;0.63;;;0.63;;
46084;SDS011;31823;47.032;8.310;2023-03-14T01:46:38;0.77;;;0.70;;
46084;SDS011;31823;47.032;8.310;2023-03-14T01:49:07;1.58;;;0.80;;
46084;SDS011;31823;47.032;8.310;2023-03-14T01:51:42;4.90;;;0.90;;
46084;SDS011;31823;47.032;8.310;2023-03-14T01:56:42;0.50;;;0.50;;
46084;SDS011;31823;47.032;8.310;2023-03-14T01:59:12;1.85;;;0.70;;
46084;SDS011;31823;47.032;8.310;2023-03-14T02:01:38;0.73;;;0.73;;
46084;SDS011;31823;47.032;8.310;2023-03-14T02:04:07;0.73;;;0.70;;
46084;SDS011;31823;47.032;8.310;2023-03-14T02:09:23;1.77;;;1.02;;
46084;SDS011;31823;47.032;8.310;2023-03-14T02:11:49;1.40;;;1.10;;
46084;SDS011;31823;47.032;8.310;2023-03-14T02:14:25;0.77;;;0.70;;
46084;SDS011;31823;47.032;8.310;2023-03-14T02:16:56;0.68;;;0.68;;
46084;SDS011;31823;47.032;8.310;2023-03-14T02:19:33;0.60;;;0.60;;
46084;SDS011;31823;47.032;8.310;2023-03-14T02:22:13;1.17;;;0.95;;
46084;SDS011;31823;47.032;8.310;2023-03-14T02:24:46;2.47;;;1.00;;
46084;SDS011;31823;47.032;8.310;2023-03-14T02:27:20;2.42;;;0.80;;
46084;SDS011;31823;47.032;8.310;2023-03-14T02:32:17;3.83;;;1.00;;
46084;SDS011;31823;47.032;8.310;2023-03-14T02:34:46;1.08;;;0.90;;
46084;SDS011;31823;47.032;8.310;2023-03-14T02:37:15;1.17;;;1.00;;
46084;SDS011;31823;47.032;8.310;2023-03-14T02:39:44;2.80;;;1.23;;
46084;SDS011;31823;47.032;8.310;2023-03-14T02:42:11;0.85;;;0.80;;
46084;SDS011;31823;47.032;8.310;2023-03-14T02:44:51;1.45;;;0.88;;
46084;SDS011;31823;47.032;8.310;2023-03-14T02:47:18;1.02;;;0.68;;
46084;SDS011;31823;47.032;8.310;2023-03-14T02:49:47;0.60;;;0.60;;
46084;SDS011;31823;47.032;8.310;2023-03-14T02:52:13;0.80;;;0.80;;
46084;SDS011;31823;47.032;8.310;2023-03-14T02:54:38;1.25;;;0.80;;
46084;SDS011;31823;47.032;8.310;2023-03-14T02:57:04;2.58;;;0.93;;
46084;SDS011;31823;47.032;8.310;2023-03-14T02:59:29;1.23;;;0.90;;
46084;SDS011;31823;47.032;8.310;2023-03-14T03:01:55;2.75;;;0.82;;
46084;SDS011;31823;47.032;8.310;2023-03-14T03:04:20;1.38;;;0.65;;
46084;SDS011;31823;47.032;8.310;2023-03-14T03:06:46;3.30;;;0.80;;
46084;SDS011;31823;47.032;8.310;2023-03-14T03:09:12;0.98;;;0.90;;
46084;SDS011;31823;47.032;8.310;2023-03-14T03:11:37;2.45;;;0.70;;
46084;SDS011;31823;47.032;8.310;2023-03-14T03:14:03;3.80;;;0.80;;
46084;SDS011;31823;47.032;8.310;2023-03-14T03:16:28;1.25;;;1.15;;
46084;SDS011;31823;47.032;8.310;2023-03-14T03:18:54;3.72;;;1.63;;
46084;SDS011;31823;47.032;8.310;2023-03-14T03:21:19;2.78;;;1.95;;
46084;SDS011;31823;47.032;8.310;2023-03-14T03:23:48;2.00;;;1.70;;
46084;SDS011;31823;47.032;8.310;2023-03-14T03:26:14;3.72;;;1.98;;
46084;SDS011;31823;47.032;8.310;2023-03-14T03:28:39;2.45;;;2.17;;
46084;SDS011;31823;47.032;8.310;2023-03-14T03:31:08;3.08;;;1.70;;
46084;SDS011;31823;47.032;8.310;2023-03-14T03:33:35;1.83;;;1.30;;
46084;SDS011;31823;47.032;8.310;2023-03-14T03:36:02;0.90;;;0.90;;
46084;SDS011;31823;47.032;8.310;2023-03-14T03:38:27;1.20;;;1.00;;
46084;SDS011;31823;47.032;8.310;2023-03-14T03:40:53;2.08;;;0.90;;
46084;SDS011;31823;47.032;8.310;2023-03-14T03:43:18;2.90;;;0.95;;
46084;SDS011;31823;47.032;8.310;2023-03-14T03:45:44;1.05;;;0.95;;
46084;SDS011;31823;47.032;8.310;2023-03-14T03:48:09;1.95;;;1.10;;
46084;SDS011;31823;47.032;8.310;2023-03-14T03:50:35;2.53;;;0.80;;
46084;SDS011;31823;47.032;8.310;2023-03-14T03:53:01;4.10;;;0.80;;
46084;SDS011;31823;47.032;8.310;2023-03-14T03:55:26;0.68;;;0.68;;
46084;SDS011;31823;47.032;8.310;2023-03-14T03:57:53;1.77;;;0.80;;
46084;SDS011;31823;47.032;8.310;2023-03-14T04:00:18;1.33;;;0.60;;
46084;SDS011;31823;47.032;8.310;2023-03-14T04:02:44;1.70;;;1.10;;
46084;SDS011;31823;47.032;8.310;2023-03-14T04:05:10;2.45;;;0.85;;
46084;SDS011;31823;47.032;8.310;2023-03-14T04:07:35;0.68;;;0.68;;
46084;SDS011;31823;47.032;8.310;2023-03-14T04:10:01;2.30;;;0.63;;
46084;SDS011;31823;47.032;8.310;2023-03-14T04:12:26;11.98;;;0.93;;
46084;SDS011;31823;47.032;8.310;2023-03-14T04:14:52;0.75;;;0.68;;
46084;SDS011;31823;47.032;8.310;2023-03-14T04:17:17;1.02;;;0.70;;
46084;SDS011;31823;47.032;8.310;2023-03-14T04:19:43;2.28;;;0.50;;
46084;SDS011;31823;47.032;8.310;2023-03-14T04:22:08;0.93;;;0.50;;
46084;SDS011;31823;47.032;8.310;2023-03-14T04:24:34;2.30;;;0.70;;
46084;SDS011;31823;47.032;8.310;2023-03-14T04:27:00;0.88;;;0.60;;
46084;SDS011;31823;47.032;8.310;2023-03-14T04:29:25;2.25;;;0.52;;
46084;SDS011;31823;47.032;8.310;2023-03-14T04:31:51;2.05;;;0.68;;
46084;SDS011;31823;47.032;8.310;2023-03-14T04:34:16;1.17;;;0.65;;
46084;SDS011;31823;47.032;8.310;2023-03-14T04:36:42;1.25;;;0.60;;
46084;SDS011;31823;47.032;8.310;2023-03-14T04:39:07;1.92;;;0.52;;
46084;SDS011;31823;47.032;8.310;2023-03-14T04:41:33;0.77;;;0.75;;
46084;SDS011;31823;47.032;8.310;2023-03-14T04:43:58;3.03;;;0.52;;
46084;SDS011;31823;47.032;8.310;2023-03-14T04:46:24;0.90;;;0.52;;
46084;SDS011;31823;47.032;8.310;2023-03-14T04:48:49;3.55;;;0.65;;
46084;SDS011;31823;47.032;8.310;2023-03-14T04:51:15;2.00;;;0.60;;
46084;SDS011;31823;47.032;8.310;2023-03-14T04:53:40;2.92;;;1.20;;
46084;SDS011;31823;47.032;8.310;2023-03-14T04:56:06;0.70;;;0.70;;
46084;SDS011;31823;47.032;8.310;2023-03-14T04:58:32;2.90;;;0.82;;
46084;SDS011;31823;47.032;8.310;2023-03-14T05:01:01;1.98;;;0.68;;
46084;SDS011;31823;47.032;8.310;2023-03-14T05:03:28;0.80;;;0.80;;
46084;SDS011;31823;47.032;8.310;2023-03-14T05:05:54;3.13;;;0.80;;
46084;SDS011;31823;47.032;8.310;2023-03-14T05:08:20;4.13;;;0.75;;
46084;SDS011;31823;47.032;8.310;2023-03-14T05:10:51;1.17;;;0.75;;
46084;SDS011;31823;47.032;8.310;2023-03-14T05:13:19;0.98;;;0.88;;
46084;SDS011;31823;47.032;8.310;2023-03-14T05:15:45;1.77;;;0.85;;
46084;SDS011;31823;47.032;8.310;2023-03-14T05:18:10;10.23;;;0.90;;
46084;SDS011;31823;47.032;8.310;2023-03-14T05:20:36;6.53;;;1.00;;
46084;SDS011;31823;47.032;8.310;2023-03-14T05:23:01;2.15;;;0.90;;
46084;SDS011;31823;47.032;8.310;2023-03-14T05:25:27;0.95;;;0.90;;
46084;SDS011;31823;47.032;8.310;2023-03-14T05:27:55;1.20;;;0.70;;
46084;SDS011;31823;47.032;8.310;2023-03-14T05:30:21;1.95;;;0.70;;
46084;SDS011;31823;47.032;8.310;2023-03-14T05:32:47;2.20;;;0.77;;
46084;SDS011;31823;47.032;8.310;2023-03-14T05:35:13;3.35;;;1.00;;
46084;SDS011;31823;47.032;8.310;2023-03-14T05:37:39;2.50;;;0.90;;
46084;SDS011;31823;47.032;8.310;2023-03-14T05:40:05;4.25;;;1.10;;
46084;SDS011;31823;47.032;8.310;2023-03-14T05:42:31;1.98;;;1.05;;
46084;SDS011;31823;47.032;8.310;2023-03-14T05:44:57;0.70;;;0.70;;
46084;SDS011;31823;47.032;8.310;2023-03-14T05:47:23;4.28;;;1.20;;
46084;SDS011;31823;47.032;8.310;2023-03-14T05:49:49;1.92;;;0.80;;
46084;SDS011;31823;47.032;8.310;2023-03-14T05:52:14;1.30;;;0.80;;
46084;SDS011;31823;47.032;8.310;2023-03-14T05:54:40;3.65;;;1.20;;
46084;SDS011;31823;47.032;8.310;2023-03-14T05:57:06;5.88;;;1.25;;
46084;SDS011;31823;47.032;8.310;2023-03-14T05:59:31;4.43;;;1.20;;
46084;SDS011;31823;47.032;8.310;2023-03-14T06:01:57;2.42;;;0.70;;
46084;SDS011;31823;47.032;8.310;2023-03-14T06:04:24;3.08;;;0.80;;
46084;SDS011;31823;47.032;8.310;2023-03-14T06:06:50;3.40;;;1.10;;
46084;SDS011;31823;47.032;8.310;2023-03-14T06:09:15;1.25;;;1.00;;
46084;SDS011;31823;47.032;8.310;2023-03-14T06:11:41;1.80;;;0.60;;
46084;SDS011;31823;47.032;8.310;2023-03-14T06:14:07;3.53;;;0.80;;
46084;SDS011;31823;47.032;8.310;2023-03-14T06:16:33;1.17;;;1.08;;
46084;SDS011;31823;47.032;8.310;2023-03-14T06:18:58;1.42;;;1.27;;
46084;SDS011;31823;47.032;8.310;2023-03-14T06:21:24;0.70;;;0.70;;
46084;SDS011;31823;47.032;8.310;2023-03-14T06:23:50;1.08;;;1.00;;
46084;SDS011;31823;47.032;8.310;2023-03-14T06:26:15;1.30;;;1.20;;
46084;SDS011;31823;47.032;8.310;2023-03-14T06:28:41;1.20;;;0.90;;
46084;SDS011;31823;47.032;8.310;2023-03-14T06:31:06;3.80;;;0.93;;
46084;SDS011;31823;47.032;8.310;2023-03-14T06:33:32;7.75;;;1.02;;
46084;SDS011;31823;47.032;8.310;2023-03-14T06:35:58;2.42;;;0.90;;
46084;SDS011;31823;47.032;8.310;2023-03-14T06:38:23;1.95;;;0.82;;
46084;SDS011;31823;47.032;8.310;2023-03-14T06:40:49;3.80;;;1.35;;
46084;SDS011;31823;47.032;8.310;2023-03-14T06:43:14;3.28;;;1.02;;
46084;SDS011;31823;47.032;8.310;2023-03-14T06:45:40;1.73;;;1.58;;
46084;SDS011;31823;47.032;8.310;2023-03-14T06:48:05;2.05;;;1.83;;
46084;SDS011;31823;47.032;8.310;2023-03-14T06:50:31;6.32;;;1.70;;
46084;SDS011;31823;47.032;8.310;2023-03-14T06:52:56;3.88;;;1.48;;
46084;SDS011;31823;47.032;8.310;2023-03-14T06:55:22;4.45;;;1.80;;
46084;SDS011;31823;47.032;8.310;2023-03-14T06:57:47;4.65;;;1.50;;
46084;SDS011;31823;47.032;8.310;2023-03-14T07:00:13;6.75;;;1.60;;
46084;SDS011;31823;47.032;8.310;2023-03-14T07:02:39;3.40;;;1.50;;
46084;SDS011;31823;47.032;8.310;2023-03-14T07:05:05;2.88;;;1.45;;
46084;SDS011;31823;47.032;8.310;2023-03-14T07:07:31;1.70;;;1.40;;
46084;SDS011;31823;47.032;8.310;2023-03-14T07:09:56;2.30;;;1.38;;
46084;SDS011;31823;47.032;8.310;2023-03-14T07:12:22;1.38;;;1.10;;
46084;SDS011;31823;47.032;8.310;2023-03-14T07:14:48;5.43;;;1.15;;
46084;SDS011;31823;47.032;8.310;2023-03-14T07:17:13;3.13;;;1.30;;
46084;SDS011;31823;47.032;8.310;2023-03-14T07:19:39;1.75;;;1.10;;
46084;SDS011;31823;47.032;8.310;2023-03-14T07:22:04;4.22;;;1.45;;
46084;SDS011;31823;47.032;8.310;2023-03-14T07:24:30;3.55;;;1.35;;
46084;SDS011;31823;47.032;8.310;2023-03-14T07:26:56;4.07;;;1.40;;
46084;SDS011;31823;47.032;8.310;2023-03-14T07:29:21;1.20;;;1.10;;
46084;SDS011;31823;47.032;8.310;2023-03-14T07:31:47;1.65;;;1.05;;
46084;SDS011;31823;47.032;8.310;2023-03-14T07:34:12;2.55;;;1.30;;
46084;SDS011;31823;47.032;8.310;2023-03-14T07:36:38;4.35;;;1.52;;
46084;SDS011;31823;47.032;8.310;2023-03-14T07:39:04;3.20;;;1.40;;
46084;SDS011;31823;47.032;8.310;2023-03-14T07:41:30;1.45;;;1.00;;
46084;SDS011;31823;47.032;8.310;2023-03-14T07:43:55;5.80;;;1.10;;
46084;SDS011;31823;47.032;8.310;2023-03-14T07:46:21;1.60;;;1.50;;
46084;SDS011;31823;47.032;8.310;2023-03-14T07:48:46;2.65;;;1.98;;
46084;SDS011;31823;47.032;8.310;2023-03-14T07:51:12;1.52;;;1.20;;
46084;SDS011;31823;47.032;8.310;2023-03-14T07:53:37;5.13;;;1.58;;
46084;SDS011;31823;47.032;8.310;2023-03-14T07:56:04;5.30;;;1.98;;
46084;SDS011;31823;47.032;8.310;2023-03-14T07:58:30;2.78;;;2.05;;
46084;SDS011;31823;47.032;8.310;2023-03-14T08:00:57;6.97;;;1.80;;
46084;SDS011;31823;47.032;8.310;2023-03-14T08:03:23;4.97;;;1.73;;
46084;SDS011;31823;47.032;8.310;2023-03-14T08:05:49;4.53;;;1.65;;
46084;SDS011;31823;47.032;8.310;2023-03-14T08:08:16;3.78;;;1.65;;
46084;SDS011;31823;47.032;8.310;2023-03-14T08:10:42;2.15;;;1.30;;
46084;SDS011;31823;47.032;8.310;2023-03-14T08:13:08;2.63;;;1.55;;
46084;SDS011;31823;47.032;8.310;2023-03-14T08:15:34;5.60;;;1.40;;
46084;SDS011;31823;47.032;8.310;2023-03-14T08:18:03;1.73;;;1.40;;
46084;SDS011;31823;47.032;8.310;2023-03-14T08:20:29;2.40;;;1.40;;
46084;SDS011;31823;47.032;8.310;2023-03-14T08:22:55;3.85;;;2.55;;
46084;SDS011;31823;47.032;8.310;2023-03-14T08:25:25;5.88;;;2.35;;
46084;SDS011;31823;47.032;8.310;2023-03-14T08:27:52;3.05;;;2.10;;
46084;SDS011;31823;47.032;8.310;2023-03-14T08:30:18;2.70;;;1.92;;
46084;SDS011;31823;47.032;8.310;2023-03-14T08:32:45;6.07;;;1.90;;
46084;SDS011;31823;47.032;8.310;2023-03-14T08:35:10;3.92;;;2.30;;
46084;SDS011;31823;47.032;8.310;2023-03-14T08:37:36;2.42;;;2.08;;
46084;SDS011;31823;47.032;8.310;2023-03-14T08:40:03;3.80;;;1.98;;
46084;SDS011;31823;47.032;8.310;2023-03-14T08:42:33;2.22;;;1.98;;
46084;SDS011;31823;47.032;8.310;2023-03-14T08:44:59;3.97;;;2.33;;
46084;SDS011;31823;47.032;8.310;2023-03-14T08:47:25;5.53;;;2.03;;
46084;SDS011;31823;47.032;8.310;2023-03-14T08:49:50;3.55;;;2.30;;
46084;SDS011;31823;47.032;8.310;2023-03-14T08:52:16;3.60;;;2.05;;
46084;SDS011;31823;47.032;8.310;2023-03-14T08:54:44;3.83;;;2.35;;
46084;SDS011;31823;47.032;8.310;2023-03-14T08:57:10;4.72;;;2.05;;
46084;SDS011;31823;47.032;8.310;2023-03-14T08:59:36;5.40;;;1.90;;
46084;SDS011;31823;47.032;8.310;2023-03-14T09:02:02;3.33;;;1.80;;
46084;SDS011;31823;47.032;8.310;2023-03-14T09:04:31;2.10;;;1.80;;
46084;SDS011;31823;47.032;8.310;2023-03-14T09:06:58;1.65;;;1.55;;
46084;SDS011;31823;47.032;8.310;2023-03-14T09:09:24;2.03;;;1.20;;
46084;SDS011;31823;47.032;8.310;2023-03-14T09:11:54;5.40;;;2.30;;
46084;SDS011;31823;47.032;8.310;2023-03-14T09:14:20;4.68;;;1.48;;
46084;SDS011;31823;47.032;8.310;2023-03-14T09:16:46;3.10;;;1.73;;
46084;SDS011;31823;47.032;8.310;2023-03-14T09:19:11;2.80;;;1.73;;
46084;SDS011;31823;47.032;8.310;2023-03-14T09:21:37;3.88;;;1.80;;
46084;SDS011;31823;47.032;8.310;2023-03-14T09:24:03;3.25;;;1.38;;
46084;SDS011;31823;47.032;8.310;2023-03-14T09:26:29;2.95;;;1.75;;
46084;SDS011;31823;47.032;8.310;2023-03-14T09:28:56;2.90;;;1.60;;
46084;SDS011;31823;47.032;8.310;2023-03-14T09:31:22;2.30;;;1.65;;
46084;SDS011;31823;47.032;8.310;2023-03-14T09:33:47;5.93;;;1.80;;
46084;SDS011;31823;47.032;8.310;2023-03-14T09:36:13;2.30;;;1.70;;
46084;SDS011;31823;47.032;8.310;2023-03-14T09:38:38;4.78;;;1.70;;
46084;SDS011;31823;47.032;8.310;2023-03-14T09:41:11;5.05;;;1.88;;
46084;SDS011;31823;47.032;8.310;2023-03-14T09:43:44;2.65;;;1.90;;
46084;SDS011;31823;47.032;8.310;2023-03-14T09:46:11;2.10;;;1.60;;
46084;SDS011;31823;47.032;8.310;2023-03-14T09:48:38;1.10;;;1.00;;
46084;SDS011;31823;47.032;8.310;2023-03-14T09:51:06;4.60;;;1.10;;
46084;SDS011;31823;47.032;8.310;2023-03-14T09:53:40;2.53;;;1.40;;
46084;SDS011;31823;47.032;8.310;2023-03-14T09:56:10;2.25;;;1.20;;
46084;SDS011;31823;47.032;8.310;2023-03-14T09:59:00;1.30;;;1.20;;
46084;SDS011;31823;47.032;8.310;2023-03-14T10:01:30;1.63;;;1.30;;
46084;SDS011;31823;47.032;8.310;2023-03-14T10:03:58;1.73;;;1.30;;
46084;SDS011;31823;47.032;8.310;2023-03-14T10:06:28;1.65;;;1.17;;
46084;SDS011;31823;47.032;8.310;2023-03-14T10:08:54;1.30;;;1.15;;
46084;SDS011;31823;47.032;8.310;2023-03-14T10:11:21;2.50;;;1.20;;
46084;SDS011;31823;47.032;8.310;2023-03-14T10:14:09;2.13;;;1.10;;
46084;SDS011;31823;47.032;8.310;2023-03-14T10:16:40;1.05;;;0.95;;
46084;SDS011;31823;47.032;8.310;2023-03-14T10:19:11;1.77;;;1.42;;
46084;SDS011;31823;47.032;8.310;2023-03-14T10:21:39;3.03;;;1.65;;
46084;SDS011;31823;47.032;8.310;2023-03-14T10:24:17;1.30;;;1.20;;
46084;SDS011;31823;47.032;8.310;2023-03-14T10:26:47;2.08;;;1.40;;
46084;SDS011;31823;47.032;8.310;2023-03-14T10:29:20;3.00;;;1.50;;
46084;SDS011;31823;47.032;8.310;2023-03-14T10:34:24;1.20;;;1.10;;
46084;SDS011;31823;47.032;8.310;2023-03-14T10:36:52;2.63;;;1.13;;
46084;SDS011;31823;47.032;8.310;2023-03-14T10:39:53;2.40;;;1.30;;
46084;SDS011;31823;47.032;8.310;2023-03-14T10:42:14;1.35;;;1.15;;
46084;SDS011;31823;47.032;8.310;2023-03-14T10:45:06;1.20;;;1.10;;
46084;SDS011;31823;47.032;8.310;2023-03-14T10:47:52;2.40;;;1.30;;
46084;SDS011;31823;47.032;8.310;2023-03-14T10:52:49;3.00;;;1.83;;
46084;SDS011;31823;47.032;8.310;2023-03-14T10:55:17;2.47;;;1.67;;
46084;SDS011;31823;47.032;8.310;2023-03-14T10:57:42;2.65;;;2.08;;
46084;SDS011;31823;47.032;8.310;2023-03-14T11:00:14;2.10;;;1.80;;
46084;SDS011;31823;47.032;8.310;2023-03-14T11:02:45;1.23;;;1.13;;
46084;SDS011;31823;47.032;8.310;2023-03-14T11:05:29;4.65;;;2.22;;
46084;SDS011;31823;47.032;8.310;2023-03-14T11:08:01;2.90;;;1.70;;
46084;SDS011;31823;47.032;8.310;2023-03-14T11:15:55;0.98;;;0.60;;
46084;SDS011;31823;47.032;8.310;2023-03-14T11:18:42;0.70;;;0.70;;
46084;SDS011;31823;47.032;8.310;2023-03-14T11:27:15;0.50;;;0.50;;
46084;SDS011;31823;47.032;8.310;2023-03-14T11:32:24;0.50;;;0.50;;
46084;SDS011;31823;47.032;8.310;2023-03-14T11:37:55;0.68;;;0.68;;
46084;SDS011;31823;47.032;8.310;2023-03-14T11:40:41;0.50;;;0.50;;
46084;SDS011;31823;47.032;8.310;2023-03-14T11:45:52;0.50;;;0.50;;
46084;SDS011;31823;47.032;8.310;2023-03-14T11:48:43;0.50;;;0.50;;
46084;SDS011;31823;47.032;8.310;2023-03-14T11:51:27;1.63;;;0.60;;
46084;SDS011;31823;47.032;8.310;2023-03-14T11:56:25;0.65;;;0.65;;
46084;SDS011;31823;47.032;8.310;2023-03-14T11:58:59;0.70;;;0.50;;
46084;SDS011;31823;47.032;8.310;2023-03-14T12:01:49;0.60;;;0.60;;
46084;SDS011;31823;47.032;8.310;2023-03-14T12:06:57;0.70;;;0.70;;
46084;SDS011;31823;47.032;8.310;2023-03-14T12:09:30;2.55;;;0.77;;
46084;SDS011;31823;47.032;8.310;2023-03-14T12:11:57;0.65;;;0.65;;
46084;SDS011;31823;47.032;8.310;2023-03-14T12:14:26;0.70;;;0.70;;
46084;SDS011;31823;47.032;8.310;2023-03-14T12:16:58;0.63;;;0.60;;
46084;SDS011;31823;47.032;8.310;2023-03-14T12:19:29;0.50;;;0.50;;
46084;SDS011;31823;47.032;8.310;2023-03-14T12:24:51;0.73;;;0.60;;
46084;SDS011;31823;47.032;8.310;2023-03-14T12:30:17;0.50;;;0.50;;
46084;SDS011;31823;47.032;8.310;2023-03-14T12:33:10;0.60;;;0.60;;
46084;SDS011;31823;47.032;8.310;2023-03-14T12:35:53;0.63;;;0.63;;
46084;SDS011;31823;47.032;8.310;2023-03-14T12:43:53;0.63;;;0.60;;
46084;SDS011;31823;47.032;8.310;2023-03-14T12:46:26;0.60;;;0.60;;
46084;SDS011;31823;47.032;8.310;2023-03-14T12:51:36;1.33;;;0.50;;
46084;SDS011;31823;47.032;8.310;2023-03-14T12:59:33;0.60;;;0.60;;
46084;SDS011;31823;47.032;8.310;2023-03-14T13:04:49;0.60;;;0.60;;
46084;SDS011;31823;47.032;8.310;2023-03-14T13:13:20;1.33;;;0.70;;
46084;SDS011;31823;47.032;8.310;2023-03-14T13:15:27;3.35;;;0.57;;
46084;SDS011;31823;47.032;8.310;2023-03-14T13:20:51;0.65;;;0.65;;
46084;SDS011;31823;47.032;8.310;2023-03-14T13:23:31;1.15;;;0.73;;
46084;SDS011;31823;47.032;8.310;2023-03-14T13:25:59;0.60;;;0.60;;
46084;SDS011;31823;47.032;8.310;2023-03-14T13:28:29;0.93;;;0.70;;
46084;SDS011;31823;47.032;8.310;2023-03-14T13:30:57;0.80;;;0.80;;
46084;SDS011;31823;47.032;8.310;2023-03-14T13:33:25;0.73;;;0.68;;
46084;SDS011;31823;47.032;8.310;2023-03-14T13:38:25;0.80;;;0.80;;
46084;SDS011;31823;47.032;8.310;2023-03-14T13:40:57;0.60;;;0.60;;
46084;SDS011;31823;47.032;8.310;2023-03-14T13:43:32;1.73;;;1.00;;
46084;SDS011;31823;47.032;8.310;2023-03-14T13:48:41;0.60;;;0.60;;
46084;SDS011;31823;47.032;8.310;2023-03-14T13:51:13;0.50;;;0.50;;
46084;SDS011;31823;47.032;8.310;2023-03-14T13:53:46;1.38;;;0.85;;
46084;SDS011;31823;47.032;8.310;2023-03-14T13:56:20;0.60;;;0.60;;
46084;SDS011;31823;47.032;8.310;2023-03-14T13:58:47;1.00;;;0.60;;
46084;SDS011;31823;47.032;8.310;2023-03-14T14:03:48;1.13;;;1.02;;
46084;SDS011;31823;47.032;8.310;2023-03-14T14:06:37;0.75;;;0.75;;
46084;SDS011;31823;47.032;8.310;2023-03-14T14:09:04;1.95;;;0.95;;
46084;SDS011;31823;47.032;8.310;2023-03-14T14:11:46;1.95;;;0.80;;
46084;SDS011;31823;47.032;8.310;2023-03-14T14:14:29;0.60;;;0.60;;
46084;SDS011;31823;47.032;8.310;2023-03-14T14:17:36;1.00;;;0.80;;
46084;SDS011;31823;47.032;8.310;2023-03-14T14:20:51;1.00;;;0.77;;
46084;SDS011;31823;47.032;8.310;2023-03-14T14:23:05;1.60;;;0.93;;
46084;SDS011;31823;47.032;8.310;2023-03-14T14:25:34;0.75;;;0.70;;
46084;SDS011;31823;47.032;8.310;2023-03-14T14:33:59;0.63;;;0.60;;
46084;SDS011;31823;47.032;8.310;2023-03-14T14:36:42;0.80;;;0.80;;
46084;SDS011;31823;47.032;8.310;2023-03-14T14:41:51;1.70;;;0.90;;
46084;SDS011;31823;47.032;8.310;2023-03-14T14:44:18;0.80;;;0.80;;
46084;SDS011;31823;47.032;8.310;2023-03-14T14:46:54;0.70;;;0.70;;
46084;SDS011;31823;47.032;8.310;2023-03-14T14:49:21;2.05;;;0.77;;
46084;SDS011;31823;47.032;8.310;2023-03-14T14:51:59;0.93;;;0.80;;
46084;SDS011;31823;47.032;8.310;2023-03-14T14:54:34;0.63;;;0.57;;
46084;SDS011;31823;47.032;8.310;2023-03-14T14:57:12;2.92;;;0.82;;
46084;SDS011;31823;47.032;8.310;2023-03-14T14:59:43;2.42;;;0.60;;
46084;SDS011;31823;47.032;8.310;2023-03-14T15:04:55;1.23;;;0.50;;
46084;SDS011;31823;47.032;8.310;2023-03-14T15:07:21;0.90;;;0.70;;
46084;SDS011;31823;47.032;8.310;2023-03-14T15:09:47;0.77;;;0.63;;
46084;SDS011;31823;47.032;8.310;2023-03-14T15:12:12;1.08;;;0.65;;
46084;SDS011;31823;47.032;8.310;2023-03-14T15:14:38;0.70;;;0.70;;
46084;SDS011;31823;47.032;8.310;2023-03-14T15:17:05;1.02;;;0.77;;
46084;SDS011;31823;47.032;8.310;2023-03-14T15:19:34;0.98;;;0.70;;
46084;SDS011;31823;47.032;8.310;2023-03-14T15:21:59;1.10;;;0.60;;
46084;SDS011;31823;47.032;8.310;2023-03-14T15:24:25;2.88;;;1.45;;
46084;SDS011;31823;47.032;8.310;2023-03-14T15:26:51;0.82;;;0.82;;
46084;SDS011;31823;47.032;8.310;2023-03-14T15:29:16;1.45;;;0.70;;
46084;SDS011;31823;47.032;8.310;2023-03-14T15:31:43;0.88;;;0.63;;
46084;SDS011;31823;47.032;8.310;2023-03-14T15:34:09;1.42;;;0.90;;
46084;SDS011;31823;47.032;8.310;2023-03-14T15:36:38;0.75;;;0.75;;
46084;SDS011;31823;47.032;8.310;2023-03-14T15:39:04;1.00;;;0.65;;
46084;SDS011;31823;47.032;8.310;2023-03-14T15:41:31;1.08;;;0.65;;
46084;SDS011;31823;47.032;8.310;2023-03-14T15:43:56;1.45;;;0.80;;
46084;SDS011;31823;47.032;8.310;2023-03-14T15:46:22;0.82;;;0.82;;
46084;SDS011;31823;47.032;8.310;2023-03-14T15:48:48;1.15;;;0.80;;
46084;SDS011;31823;47.032;8.310;2023-03-14T15:51:15;0.80;;;0.80;;
46084;SDS011;31823;47.032;8.310;2023-03-14T15:53:41;1.42;;;0.60;;
46084;SDS011;31823;47.032;8.310;2023-03-14T15:56:11;1.65;;;0.80;;
46084;SDS011;31823;47.032;8.310;2023-03-14T15:58:38;1.42;;;0.80;;
46084;SDS011;31823;47.032;8.310;2023-03-14T16:01:05;0.82;;;0.70;;
46084;SDS011;31823;47.032;8.310;2023-03-14T16:03:33;1.67;;;0.85;;
46084;SDS011;31823;47.032;8.310;2023-03-14T16:05:59;1.10;;;0.80;;
46084;SDS011;31823;47.032;8.310;2023-03-14T16:08:25;1.42;;;0.90;;
46084;SDS011;31823;47.032;8.310;2023-03-14T16:10:54;0.80;;;0.80;;
46084;SDS011;31823;47.032;8.310;2023-03-14T16:13:22;1.75;;;0.88;;
46084;SDS011;31823;47.032;8.310;2023-03-14T16:15:58;0.95;;;0.88;;
46084;SDS011;31823;47.032;8.310;2023-03-14T16:18:30;1.88;;;0.80;;
46084;SDS011;31823;47.032;8.310;2023-03-14T16:20:58;0.93;;;0.90;;
46084;SDS011;31823;47.032;8.310;2023-03-14T16:23:26;0.80;;;0.80;;